createdAt,value
2018-08-19T00:00:18.650Z,20.40
2018-08-19T00:02:46.784Z,20.50
2018-08-19T00:05:16.117Z,20.40
2018-08-19T00:07:44.182Z,20.40
2018-08-19T00:10:12.320Z,20.40
2018-08-19T00:12:43.157Z,20.40
2018-08-19T00:15:11.321Z,20.40
2018-08-19T00:17:39.417Z,20.30
2018-08-19T00:20:08.411Z,20.30
2018-08-19T00:22:36.454Z,20.30
2018-08-19T00:25:04.527Z,20.30
2018-08-19T00:27:34.243Z,20.30
2018-08-19T00:30:02.292Z,20.30
2018-08-19T00:32:30.329Z,20.20
2018-08-19T00:34:58.389Z,20.20
2018-08-19T00:37:26.418Z,20.20
2018-08-19T00:39:58.826Z,20.20
2018-08-19T00:42:26.933Z,20.10
2018-08-19T00:44:55.115Z,20.10
2018-08-19T00:47:23.162Z,20.00
2018-08-19T00:49:55.572Z,20.00
2018-08-19T00:52:23.604Z,20.00
2018-08-19T00:54:51.703Z,20.00
2018-08-19T00:57:19.776Z,19.90
2018-08-19T00:59:47.861Z,19.90
2018-08-19T01:02:15.921Z,19.90
2018-08-19T01:04:43.986Z,19.90
2018-08-19T01:07:12.018Z,19.90
2018-08-19T01:09:40.061Z,19.90
2018-08-19T01:12:08.132Z,19.90
2018-08-19T01:14:36.352Z,19.90
2018-08-19T01:17:04.413Z,19.90
2018-08-19T01:19:32.496Z,19.80
2018-08-19T01:22:00.529Z,19.80
2018-08-19T01:24:28.634Z,19.80
2018-08-19T01:26:56.741Z,19.80
2018-08-19T01:29:31.735Z,19.70
2018-08-19T01:32:04.294Z,19.70
2018-08-19T01:34:32.333Z,19.70
2018-08-19T01:37:00.983Z,19.60
2018-08-19T01:39:29.013Z,19.50
2018-08-19T01:41:57.137Z,19.50
2018-08-19T01:44:25.156Z,19.50
2018-08-19T01:46:53.275Z,19.50
2018-08-19T01:49:21.375Z,19.50
2018-08-19T01:51:49.421Z,19.50
2018-08-19T01:54:20.366Z,19.50
2018-08-19T01:56:56.932Z,19.50
2018-08-19T01:59:27.493Z,19.60
2018-08-19T02:01:56.824Z,19.60
2018-08-19T02:04:24.971Z,19.60
2018-08-19T02:06:52.985Z,19.60
2018-08-19T02:09:21.497Z,19.60
2018-08-19T02:11:51.126Z,19.60
2018-08-19T02:14:19.930Z,19.60
2018-08-19T02:16:48.681Z,19.70
2018-08-19T02:19:16.888Z,19.60
2018-08-19T02:21:45.645Z,19.50
2018-08-19T02:24:14.124Z,19.50
2018-08-19T02:26:42.174Z,19.50
2018-08-19T02:29:20.350Z,19.50
2018-08-19T02:31:48.438Z,19.50
2018-08-19T02:34:19.644Z,19.40
2018-08-19T02:36:47.697Z,19.40
2018-08-19T02:39:15.762Z,19.40
2018-08-19T02:41:48.225Z,19.40
2018-08-19T02:44:16.261Z,19.40
2018-08-19T02:46:44.401Z,19.30
2018-08-19T02:49:12.661Z,19.30
2018-08-19T02:51:40.750Z,19.20
2018-08-19T02:54:08.835Z,19.20
2018-08-19T02:56:36.859Z,19.20
2018-08-19T02:59:04.985Z,19.20
2018-08-19T03:01:33.017Z,19.10
2018-08-19T03:04:01.060Z,19.10
2018-08-19T03:06:29.109Z,19.10
2018-08-19T03:08:58.202Z,19.10
2018-08-19T03:11:26.479Z,19.10
2018-08-19T03:13:54.640Z,19.10
2018-08-19T03:16:22.790Z,19.00
2018-08-19T03:18:51.493Z,19.00
2018-08-19T03:21:20.355Z,19.00
2018-08-19T03:23:48.657Z,19.00
2018-08-19T03:26:16.962Z,19.00
2018-08-19T03:28:45.024Z,19.00
2018-08-19T03:31:13.049Z,18.80
2018-08-19T03:33:41.149Z,18.80
2018-08-19T03:36:09.336Z,18.80
2018-08-19T03:38:37.374Z,18.80
2018-08-19T03:41:05.462Z,18.80
2018-08-19T03:43:33.502Z,18.70
2018-08-19T03:46:07.213Z,18.70
2018-08-19T03:48:35.309Z,18.70
2018-08-19T03:51:03.337Z,18.70
2018-08-19T03:53:31.455Z,18.70
2018-08-19T03:55:59.478Z,18.60
2018-08-19T03:58:27.517Z,18.60
2018-08-19T04:00:55.545Z,18.60
2018-08-19T04:03:24.995Z,18.60
2018-08-19T04:05:54.604Z,18.50
2018-08-19T04:08:25.663Z,18.50
2018-08-19T04:10:53.689Z,18.60
2018-08-19T04:13:32.437Z,18.60
2018-08-19T04:16:01.522Z,18.60
2018-08-19T04:18:35.572Z,18.60
2018-08-19T04:21:05.059Z,18.60
2018-08-19T04:23:33.456Z,18.50
2018-08-19T04:26:02.006Z,18.40
2018-08-19T04:28:30.096Z,18.40
2018-08-19T04:30:58.142Z,18.40
2018-08-19T04:33:32.309Z,18.50
2018-08-19T04:36:01.074Z,18.60
2018-08-19T04:38:30.341Z,18.50
2018-08-19T04:40:58.441Z,18.60
2018-08-19T04:43:27.449Z,18.60
2018-08-19T04:45:55.594Z,18.60
2018-08-19T04:48:25.789Z,18.60
2018-08-19T04:50:55.321Z,18.70
2018-08-19T04:53:23.399Z,18.70
2018-08-19T04:55:51.997Z,18.80
2018-08-19T04:58:20.197Z,18.80
2018-08-19T05:00:49.305Z,18.80
2018-08-19T05:03:17.410Z,18.90
2018-08-19T05:05:46.206Z,19.00
2018-08-19T05:08:14.634Z,19.10
2018-08-19T05:10:42.921Z,19.20
2018-08-19T05:13:11.746Z,19.20
2018-08-19T05:15:41.213Z,19.30
2018-08-19T05:18:10.245Z,19.40
2018-08-19T05:20:38.473Z,19.40
2018-08-19T05:23:06.969Z,19.30
2018-08-19T05:25:40.861Z,19.30
2018-08-19T05:28:08.914Z,19.30
2018-08-19T05:30:36.948Z,19.40
2018-08-19T05:33:05.576Z,19.40
2018-08-19T05:35:34.485Z,19.40
2018-08-19T05:38:03.455Z,19.50
2018-08-19T05:40:32.064Z,19.50
2018-08-19T05:43:00.197Z,19.40
2018-08-19T05:45:28.234Z,19.50
2018-08-19T05:48:02.338Z,19.60
2018-08-19T05:50:30.373Z,19.80
2018-08-19T05:52:58.416Z,19.80
2018-08-19T05:55:26.473Z,20.10
2018-08-19T05:57:54.596Z,20.20
2018-08-19T06:00:23.910Z,20.40
2018-08-19T06:02:52.355Z,20.60
2018-08-19T06:05:20.686Z,20.60
2018-08-19T06:07:50.375Z,20.70
2018-08-19T06:10:18.631Z,20.80
2018-08-19T06:12:46.680Z,21.00
2018-08-19T06:15:14.728Z,21.10
2018-08-19T06:17:42.815Z,21.20
2018-08-19T06:20:10.911Z,21.30
2018-08-19T06:22:40.893Z,21.30
2018-08-19T06:25:09.740Z,21.30
2018-08-19T06:27:50.583Z,21.40
2018-08-19T06:30:19.507Z,21.40
2018-08-19T06:32:47.650Z,21.30
2018-08-19T06:35:15.682Z,21.30
2018-08-19T06:37:43.772Z,21.30
2018-08-19T06:40:12.856Z,21.40
2018-08-19T06:42:40.937Z,21.40
2018-08-19T06:45:09.498Z,21.60
2018-08-19T06:47:37.558Z,21.60
2018-08-19T06:50:15.319Z,21.80
2018-08-19T06:52:43.426Z,21.80
2018-08-19T06:55:12.831Z,22.00
2018-08-19T06:57:41.149Z,22.10
2018-08-19T07:00:13.584Z,22.00
2018-08-19T07:02:41.637Z,22.00
2018-08-19T07:05:09.671Z,22.00
2018-08-19T07:07:37.806Z,22.00
2018-08-19T07:10:06.209Z,22.10
2018-08-19T07:12:34.280Z,24.00
2018-08-19T07:15:02.328Z,22.50
2018-08-19T07:17:30.402Z,22.60
2018-08-19T07:19:58.454Z,22.80
2018-08-19T07:22:26.533Z,23.00
2018-08-19T07:24:54.619Z,23.10
2018-08-19T07:27:22.696Z,23.20
2018-08-19T07:29:50.734Z,23.20
2018-08-19T07:32:18.837Z,23.40
2018-08-19T07:34:46.898Z,23.50
2018-08-19T07:37:15.150Z,23.50
2018-08-19T07:39:48.718Z,23.60
2018-08-19T07:42:16.787Z,23.70
2018-08-19T07:44:44.808Z,23.80
2018-08-19T07:47:12.871Z,23.80
2018-08-19T07:49:40.977Z,23.90
2018-08-19T07:52:09.007Z,24.10
2018-08-19T07:54:37.128Z,24.20
2018-08-19T07:57:12.059Z,24.40
2018-08-19T07:59:40.393Z,24.40
2018-08-19T08:02:08.420Z,24.60
2018-08-19T08:04:42.860Z,24.70
2018-08-19T08:07:11.626Z,24.80
2018-08-19T08:09:40.340Z,24.90
2018-08-19T08:12:08.801Z,24.90
2018-08-19T08:14:38.016Z,24.90
2018-08-19T08:17:07.300Z,25.00
2018-08-19T08:19:35.564Z,25.10
2018-08-19T08:22:09.137Z,25.10
2018-08-19T08:24:38.930Z,25.10
2018-08-19T08:27:07.055Z,25.10
2018-08-19T08:29:35.107Z,25.10
2018-08-19T08:32:03.413Z,25.10
2018-08-19T08:34:31.498Z,25.20
2018-08-19T08:37:01.888Z,25.30
2018-08-19T08:39:30.773Z,25.40
2018-08-19T08:41:59.333Z,25.40
2018-08-19T08:44:28.026Z,25.50
2018-08-19T08:46:58.975Z,25.50
2018-08-19T08:49:27.013Z,25.50
2018-08-19T08:51:55.036Z,25.50
2018-08-19T08:54:23.209Z,25.50
2018-08-19T08:56:51.204Z,25.60
2018-08-19T08:59:19.253Z,25.60
2018-08-19T09:01:47.309Z,25.60
2018-08-19T09:04:15.468Z,25.70
2018-08-19T09:06:43.538Z,25.80
2018-08-19T09:09:11.599Z,25.90
2018-08-19T09:11:39.665Z,26.10
2018-08-19T09:14:07.720Z,26.00
2018-08-19T09:16:35.814Z,26.10
2018-08-19T09:19:03.877Z,26.20
2018-08-19T09:21:31.909Z,26.30
2018-08-19T09:24:00.066Z,26.30
2018-08-19T09:26:28.118Z,26.40
2018-08-19T09:28:56.205Z,26.50
2018-08-19T09:31:24.239Z,26.50
2018-08-19T09:33:52.366Z,26.60
2018-08-19T09:36:20.446Z,26.60
2018-08-19T09:38:48.479Z,26.60
2018-08-19T09:41:16.546Z,26.70
2018-08-19T09:43:44.594Z,26.70
2018-08-19T09:46:12.658Z,26.70
2018-08-19T09:48:40.768Z,26.60
2018-08-19T09:51:15.082Z,26.70
2018-08-19T09:53:43.125Z,26.70
2018-08-19T09:56:11.546Z,26.50
2018-08-19T09:58:40.102Z,26.70
2018-08-19T10:01:14.140Z,26.70
2018-08-19T10:03:42.193Z,26.90
2018-08-19T10:06:10.240Z,27.00
2018-08-19T10:08:38.280Z,27.10
2018-08-19T10:11:07.456Z,27.10
2018-08-19T10:13:35.660Z,27.00
2018-08-19T10:16:03.664Z,27.20
2018-08-19T10:18:31.697Z,27.20
2018-08-19T10:21:03.826Z,27.40
2018-08-19T10:23:31.858Z,27.50
2018-08-19T10:25:59.954Z,27.50
2018-08-19T10:28:27.976Z,27.40
2018-08-19T10:30:57.624Z,27.60
2018-08-19T10:33:25.668Z,27.50
2018-08-19T10:35:57.054Z,27.40
2018-08-19T10:38:25.118Z,27.40
2018-08-19T10:41:03.545Z,27.40
2018-08-19T10:43:31.600Z,27.50
2018-08-19T10:45:59.638Z,27.50
2018-08-19T10:48:27.664Z,27.40
2018-08-19T10:50:55.835Z,27.50
2018-08-19T10:53:28.181Z,27.60
2018-08-19T10:55:57.020Z,27.60
2018-08-19T10:58:25.068Z,27.70
2018-08-19T11:00:53.134Z,27.80
2018-08-19T11:03:21.181Z,28.00
2018-08-19T11:05:51.870Z,28.20
2018-08-19T11:08:19.903Z,28.30
2018-08-19T11:10:47.994Z,28.30
2018-08-19T11:13:17.752Z,28.50
2018-08-19T11:15:50.225Z,28.60
2018-08-19T11:18:23.100Z,28.90
2018-08-19T11:20:52.972Z,29.00
2018-08-19T11:23:22.078Z,29.10
2018-08-19T11:25:50.483Z,29.10
2018-08-19T11:28:24.352Z,29.10
2018-08-19T11:30:52.410Z,29.10
2018-08-19T11:33:26.337Z,29.20
2018-08-19T11:35:54.444Z,29.20
2018-08-19T11:38:22.462Z,29.30
2018-08-19T11:40:50.553Z,29.10
2018-08-19T11:43:18.633Z,29.10
2018-08-19T11:45:46.633Z,29.10
2018-08-19T11:48:15.225Z,29.10
2018-08-19T11:50:43.252Z,29.30
2018-08-19T11:53:11.323Z,29.30
2018-08-19T11:55:39.519Z,29.50
2018-08-19T11:58:07.598Z,29.60
2018-08-19T12:00:42.297Z,29.60
2018-08-19T12:03:10.376Z,29.70
2018-08-19T12:05:38.430Z,29.60
2018-08-19T12:08:06.826Z,29.40
2018-08-19T12:10:34.858Z,29.50
2018-08-19T12:13:02.962Z,29.70
2018-08-19T12:15:31.048Z,29.90
2018-08-19T12:17:59.105Z,29.90
2018-08-19T12:20:33.073Z,30.20
2018-08-19T12:23:01.112Z,30.40
2018-08-19T12:25:29.412Z,30.70
2018-08-19T12:27:57.445Z,30.90
2018-08-19T12:30:25.500Z,31.00
2018-08-19T12:32:58.099Z,31.00
2018-08-19T12:35:26.158Z,31.30
2018-08-19T12:37:54.245Z,31.40
2018-08-19T12:40:22.282Z,31.70
2018-08-19T12:42:53.480Z,32.90
2018-08-19T12:45:22.390Z,33.20
2018-08-19T12:47:50.446Z,34.40
2018-08-19T12:50:18.534Z,35.30
2018-08-19T12:52:46.550Z,36.10
2018-08-19T12:55:14.971Z,36.60
2018-08-19T12:57:43.450Z,37.70
2018-08-19T13:00:26.146Z,38.30
2018-08-19T13:02:54.383Z,38.90
2018-08-19T13:05:22.835Z,40.30
2018-08-19T13:07:51.112Z,41.10
2018-08-19T13:10:19.360Z,40.10
2018-08-19T13:12:55.665Z,40.40
2018-08-19T13:15:24.735Z,39.30
2018-08-19T13:17:52.913Z,39.30
2018-08-19T13:20:21.016Z,41.30
2018-08-19T13:22:54.610Z,41.90
2018-08-19T13:25:23.774Z,42.10
2018-08-19T13:27:51.929Z,42.50
2018-08-19T13:30:20.733Z,43.40
2018-08-19T13:32:49.463Z,43.90
2018-08-19T13:35:17.905Z,43.60
2018-08-19T13:37:46.002Z,44.30
2018-08-19T13:40:14.462Z,43.70
2018-08-19T13:42:42.861Z,44.00
2018-08-19T13:45:13.599Z,43.60
2018-08-19T13:47:42.558Z,43.90
2018-08-19T13:50:10.758Z,43.00
2018-08-19T13:52:39.210Z,42.80
2018-08-19T13:55:07.954Z,43.00
2018-08-19T13:57:36.020Z,42.50
2018-08-19T14:00:05.096Z,43.20
2018-08-19T14:02:33.272Z,42.70
2018-08-19T14:05:01.285Z,42.10
2018-08-19T14:07:29.315Z,42.20
2018-08-19T14:09:57.489Z,42.30
2018-08-19T14:12:25.631Z,43.00
2018-08-19T14:14:53.701Z,42.70
2018-08-19T14:17:21.773Z,42.70
2018-08-19T14:19:49.823Z,42.50
2018-08-19T14:22:17.863Z,41.80
2018-08-19T14:24:45.938Z,42.30
2018-08-19T14:27:13.957Z,42.00
2018-08-19T14:29:42.070Z,42.30
2018-08-19T14:32:21.505Z,42.20
2018-08-19T14:34:49.545Z,42.20
2018-08-19T14:37:17.597Z,42.10
2018-08-19T14:39:45.664Z,42.10
2018-08-19T14:42:13.735Z,42.10
2018-08-19T14:44:41.836Z,42.70
2018-08-19T14:47:09.882Z,43.10
2018-08-19T14:49:38.096Z,43.40
2018-08-19T14:52:06.137Z,42.50
2018-08-19T14:54:34.224Z,44.00
2018-08-19T14:57:02.260Z,44.30
2018-08-19T14:59:30.307Z,45.20
2018-08-19T15:01:58.349Z,43.90
2018-08-19T15:04:26.443Z,43.70
2018-08-19T15:06:54.481Z,42.30
2018-08-19T15:09:28.126Z,41.00
2018-08-19T15:11:59.886Z,41.70
2018-08-19T15:14:28.056Z,40.80
2018-08-19T15:16:56.076Z,41.10
2018-08-19T15:19:24.125Z,41.90
2018-08-19T15:21:54.581Z,42.10
2018-08-19T15:24:22.896Z,43.30
2018-08-19T15:26:51.904Z,42.90
2018-08-19T15:29:25.369Z,42.90
2018-08-19T15:31:53.700Z,43.10
2018-08-19T15:34:21.706Z,43.30
2018-08-19T15:36:50.199Z,42.30
2018-08-19T15:39:18.259Z,42.30
2018-08-19T15:41:46.738Z,42.50
2018-08-19T15:44:14.785Z,42.70
2018-08-19T15:46:43.481Z,41.80
2018-08-19T15:49:11.538Z,40.10
2018-08-19T15:51:39.850Z,40.30
2018-08-19T15:54:08.728Z,40.60
2018-08-19T15:56:36.925Z,41.40
2018-08-19T15:59:06.554Z,42.20
2018-08-19T16:01:35.036Z,42.60
2018-08-19T16:04:09.069Z,42.80
2018-08-19T16:06:37.122Z,43.10
2018-08-19T16:09:06.690Z,42.10
2018-08-19T16:11:34.801Z,41.70
2018-08-19T16:14:04.211Z,41.40
2018-08-19T16:16:32.353Z,41.40
2018-08-19T16:19:00.492Z,41.00
2018-08-19T16:21:28.504Z,42.00
2018-08-19T16:23:56.610Z,41.30
2018-08-19T16:26:24.676Z,41.00
2018-08-19T16:28:52.751Z,39.90
2018-08-19T16:31:20.826Z,40.30
2018-08-19T16:33:48.920Z,40.40
2018-08-19T16:36:16.910Z,39.70
2018-08-19T16:38:44.952Z,39.50
2018-08-19T16:41:13.094Z,39.50
2018-08-19T16:43:41.154Z,39.40
2018-08-19T16:46:09.252Z,39.40
2018-08-19T16:48:37.413Z,39.00
2018-08-19T16:51:05.580Z,39.00
2018-08-19T16:53:33.726Z,38.60
2018-08-19T16:56:01.766Z,38.90
2018-08-19T16:58:29.817Z,39.80
2018-08-19T17:00:57.895Z,38.80
2018-08-19T17:03:29.150Z,38.20
2018-08-19T17:05:57.243Z,37.80
2018-08-19T17:08:25.385Z,38.30
2018-08-19T17:10:53.466Z,37.50
2018-08-19T17:13:21.512Z,37.20
2018-08-19T17:15:49.634Z,36.80
2018-08-19T17:18:17.798Z,36.90
2018-08-19T17:20:45.861Z,37.10
2018-08-19T17:23:15.469Z,37.30
2018-08-19T17:25:43.709Z,37.00
2018-08-19T17:28:16.115Z,37.00
2018-08-19T17:30:44.197Z,37.00
2018-08-19T17:33:12.322Z,36.40
2018-08-19T17:35:42.515Z,35.80
2018-08-19T17:38:10.661Z,35.50
2018-08-19T17:40:38.703Z,35.50
2018-08-19T17:43:06.812Z,35.20
2018-08-19T17:45:35.003Z,34.90
2018-08-19T17:48:03.077Z,34.70
2018-08-19T17:50:31.235Z,34.70
2018-08-19T17:53:01.487Z,34.40
2018-08-19T17:55:29.618Z,34.10
2018-08-19T17:57:58.862Z,33.90
2018-08-19T18:00:27.007Z,33.10
2018-08-19T18:02:55.132Z,33.00
2018-08-19T18:05:23.183Z,32.80
2018-08-19T18:07:52.486Z,32.60
2018-08-19T18:10:20.609Z,32.30
2018-08-19T18:12:49.037Z,31.90
2018-08-19T18:15:17.117Z,31.50
2018-08-19T18:17:46.658Z,31.20
2018-08-19T18:20:30.742Z,30.90
2018-08-19T18:22:58.890Z,30.60
2018-08-19T18:25:26.958Z,30.20
2018-08-19T18:27:54.980Z,29.90
2018-08-19T18:30:24.557Z,29.60
2018-08-19T18:32:52.740Z,29.40
2018-08-19T18:35:21.853Z,29.20
2018-08-19T18:37:49.989Z,28.90
2018-08-19T18:40:23.645Z,28.80
2018-08-19T18:42:51.882Z,28.60
2018-08-19T18:45:19.945Z,28.40
2018-08-19T18:47:53.490Z,28.20
2018-08-19T18:50:22.734Z,28.00
2018-08-19T18:52:51.114Z,27.90
2018-08-19T18:55:19.363Z,27.70
2018-08-19T18:57:51.357Z,27.60
2018-08-19T19:00:20.090Z,27.50
2018-08-19T19:02:53.157Z,27.30
2018-08-19T19:05:26.884Z,27.20
2018-08-19T19:07:56.797Z,27.10
2018-08-19T19:10:24.956Z,27.00
2018-08-19T19:12:53.023Z,26.90
2018-08-19T19:15:21.535Z,26.80
2018-08-19T19:17:49.688Z,26.70
2018-08-19T19:20:17.769Z,26.60
2018-08-19T19:22:51.483Z,26.60
2018-08-19T19:25:21.013Z,26.50
2018-08-19T19:27:49.050Z,26.40
2018-08-19T19:30:17.702Z,26.40
2018-08-19T19:32:45.730Z,26.30
2018-08-19T19:35:18.462Z,26.20
2018-08-19T19:37:47.278Z,26.20
2018-08-19T19:40:17.522Z,26.10
2018-08-19T19:42:45.755Z,26.00
2018-08-19T19:45:14.078Z,25.90
2018-08-19T19:47:42.198Z,25.80
2018-08-19T19:50:10.415Z,25.80
2018-08-19T19:52:40.501Z,25.70
2018-08-19T19:55:08.561Z,25.60
2018-08-19T19:57:36.637Z,25.50
2018-08-19T20:00:04.696Z,25.40
2018-08-19T20:02:32.811Z,25.30
2018-08-19T20:05:02.938Z,25.20
2018-08-19T20:07:30.984Z,25.10
2018-08-19T20:09:59.073Z,25.10
2018-08-19T20:12:27.124Z,24.90
2018-08-19T20:14:55.156Z,24.90
2018-08-19T20:17:23.327Z,24.80
2018-08-19T20:19:51.568Z,24.70
2018-08-19T20:22:19.857Z,24.60
2018-08-19T20:24:48.869Z,24.60
2018-08-19T20:27:17.505Z,24.50
2018-08-19T20:29:49.074Z,24.40
2018-08-19T20:32:17.216Z,24.40
2018-08-19T20:34:45.361Z,24.30
2018-08-19T20:37:13.604Z,24.20
2018-08-19T20:39:42.150Z,24.20
2018-08-19T20:42:10.230Z,24.00
2018-08-19T20:44:38.725Z,23.90
2018-08-19T20:47:06.898Z,23.80
2018-08-19T20:49:34.964Z,23.80
2018-08-19T20:52:03.034Z,23.60
2018-08-19T20:54:31.107Z,23.50
2018-08-19T20:56:59.285Z,23.40
2018-08-19T20:59:32.715Z,23.40
2018-08-19T21:02:00.849Z,23.40
2018-08-19T21:04:28.891Z,23.30
2018-08-19T21:06:57.233Z,23.20
2018-08-19T21:09:25.299Z,23.20
2018-08-19T21:11:53.348Z,23.10
2018-08-19T21:14:21.578Z,23.10
2018-08-19T21:16:49.693Z,23.10
2018-08-19T21:19:17.764Z,23.10
2018-08-19T21:21:45.798Z,23.00
2018-08-19T21:24:13.943Z,23.00
2018-08-19T21:26:45.393Z,23.00
2018-08-19T21:29:13.436Z,23.00
2018-08-19T21:31:41.506Z,22.90
2018-08-19T21:34:09.534Z,22.90
2018-08-19T21:36:37.653Z,23.00
2018-08-19T21:39:06.259Z,22.90
2018-08-19T21:41:44.621Z,22.90
2018-08-19T21:44:12.729Z,22.90
2018-08-19T21:46:40.804Z,22.80
2018-08-19T21:49:09.107Z,22.80
2018-08-19T21:51:37.257Z,22.80
2018-08-19T21:54:06.185Z,22.80
2018-08-19T21:56:34.221Z,22.70
2018-08-19T21:59:03.357Z,22.70
2018-08-19T22:01:34.838Z,22.70
2018-08-19T22:04:02.932Z,22.70
2018-08-19T22:06:31.012Z,22.60
2018-08-19T22:08:59.085Z,22.60
2018-08-19T22:11:27.170Z,22.60
2018-08-19T22:13:55.223Z,22.60
2018-08-19T22:16:23.331Z,22.60
2018-08-19T22:18:51.365Z,22.60
2018-08-19T22:21:20.807Z,22.50
2018-08-19T22:23:50.078Z,22.50
2018-08-19T22:26:19.277Z,22.40
2018-08-19T22:28:53.301Z,22.40
2018-08-19T22:31:22.643Z,22.40
2018-08-19T22:33:53.794Z,22.40
2018-08-19T22:36:21.940Z,22.30
2018-08-19T22:38:50.638Z,22.30
2018-08-19T22:41:18.839Z,22.30
2018-08-19T22:43:46.979Z,22.30
2018-08-19T22:46:15.310Z,22.30
2018-08-19T22:48:43.820Z,22.40
2018-08-19T22:51:12.918Z,22.30
2018-08-19T22:53:41.113Z,22.20
2018-08-19T22:56:09.163Z,22.20
2018-08-19T22:58:37.668Z,22.10
2018-08-19T23:01:06.047Z,22.10
2018-08-19T23:03:34.118Z,22.10
2018-08-19T23:06:02.190Z,22.10
2018-08-19T23:08:31.393Z,22.00
2018-08-19T23:11:00.491Z,22.00
2018-08-19T23:13:34.617Z,22.10
2018-08-19T23:16:04.868Z,22.10
2018-08-19T23:18:32.936Z,22.10
2018-08-19T23:21:01.259Z,22.10
2018-08-19T23:23:29.912Z,22.00
2018-08-19T23:25:57.921Z,22.00
2018-08-19T23:28:26.462Z,22.00
2018-08-19T23:30:54.705Z,22.00
2018-08-19T23:33:22.892Z,22.00
2018-08-19T23:35:50.942Z,21.90
2018-08-19T23:38:19.031Z,21.90
2018-08-19T23:40:47.234Z,21.90
2018-08-19T23:43:15.946Z,21.90
2018-08-19T23:45:44.179Z,21.90
2018-08-19T23:48:12.242Z,21.90
2018-08-19T23:50:40.586Z,21.90
2018-08-19T23:53:10.054Z,21.90
2018-08-19T23:55:38.490Z,21.80
2018-08-19T23:58:06.681Z,21.80
